This is the latest recevied weather packets stored in our database for station/object KD8JAM. If no packets are shown the sender has not sent any weather packets the latest 10 day(s).
| Time | Temp. | Humidity | Pressure | Rain* | Wind** | Luminosity | Snow |
|---|---|---|---|---|---|---|---|
| 1778088290 | 3.89° C | 75% | 1013.5 hPa | 0 mm | - | 676 W/m² | - |
| 1778087986 | 4.44° C | 74% | 1013.5 hPa | 0 mm | - | 546 W/m² | - |
| 1778087683 | 4.44° C | 73% | 1013.6 hPa | 0 mm | - | 831 W/m² | - |
| 1778087376 | 3.89° C | 75% | 1013.7 hPa | 0 mm | - | 838 W/m² | - |
| 1778087072 | 4.44° C | 76% | 1013.5 hPa | 0 mm | - | 790 W/m² | - |
| 1778086771 | 4.44° C | 75% | 1013.5 hPa | 0 mm | - | 920 W/m² | - |
| 1778086468 | 3.89° C | 76% | 1013.5 hPa | 0 mm | - | 960 W/m² | - |
| 1778086158 | 3.89° C | 75% | 1013.7 hPa | 0 mm | - | 311 W/m² | - |
| 1778085855 | 3.33° C | 76% | 1013.6 hPa | 0 mm | - | 374 W/m² | - |
| 1778085554 | 3.33° C | 75% | 1013.4 hPa | 0 mm | - | 614 W/m² | - |
| 1778085248 | 3.89° C | 75% | 1013.5 hPa | 0 mm | - | 471 W/m² | - |
| 1778084943 | 3.33° C | 76% | 1013.7 hPa | 0 mm | - | 678 W/m² | - |
| 1778084641 | 3.89° C | 74% | 1013.5 hPa | 0 mm | - | 1032 W/m² | - |
| 1778084338 | 4.44° C | 72% | 1013.4 hPa | 0 mm | - | 675 W/m² | - |
| 1778084035 | 3.33° C | 77% | 1013.4 hPa | 0 mm | - | 993 W/m² | - |
| 1778083727 | 3.89° C | 78% | 1013.5 hPa | 0 mm | - | 232 W/m² | - |
| 1778083424 | 3.33° C | 75% | 1013.3 hPa | 0 mm | - | 983 W/m² | - |
| 1778083123 | 3.33° C | 74% | 1013.6 hPa | 0 mm | - | 801 W/m² | - |
| 1778082819 | 3.89° C | 78% | 1013.5 hPa | 0 mm | - | 378 W/m² | - |
| 1778081696 | 2.78° C | 82% | 1013.3 hPa | 0 mm | - | 900 W/m² | - |
| 1778081394 | 2.78° C | 84% | 1013.3 hPa | 0 mm | - | 851 W/m² | - |
| 1778081091 | 2.22° C | 85% | 1013.2 hPa | 0 mm | - | 544 W/m² | - |
| 1778080789 | 2.22° C | 85% | 1013.4 hPa | 0 mm | - | 329 W/m² | - |
| 1778080486 | 2.78° C | 85% | 1013.2 hPa | 0 mm | - | 304 W/m² | - |
| 1778080184 | 2.78° C | 83% | 1013.3 hPa | 0 mm | - | 368 W/m² | - |
* Rain latest hour (hover to see other rain measurements)
** Current wind speed in m/s (hover to see current wind gust speed)